sensor_id;sensor_type;location;lat;lon;timestamp;P1;durP1;ratioP1;P2;durP2;ratioP2
60999;SDS011;46879;45.658;11.814;2023-12-20T00:01:56;14.65;;;9.07;;
60999;SDS011;46879;45.658;11.814;2023-12-20T00:06:56;14.93;;;9.35;;
60999;SDS011;46879;45.658;11.814;2023-12-20T00:11:57;16.83;;;9.45;;
60999;SDS011;46879;45.658;11.814;2023-12-20T00:16:57;14.23;;;9.15;;
60999;SDS011;46879;45.658;11.814;2023-12-20T00:21:58;15.65;;;9.38;;
60999;SDS011;46879;45.658;11.814;2023-12-20T00:26:59;13.38;;;9.13;;
60999;SDS011;46879;45.658;11.814;2023-12-20T00:32:00;13.75;;;9.10;;
60999;SDS011;46879;45.658;11.814;2023-12-20T00:37:01;12.82;;;8.80;;
60999;SDS011;46879;45.658;11.814;2023-12-20T00:42:01;13.98;;;8.75;;
60999;SDS011;46879;45.658;11.814;2023-12-20T00:47:02;18.98;;;8.70;;
60999;SDS011;46879;45.658;11.814;2023-12-20T00:52:03;13.50;;;9.65;;
60999;SDS011;46879;45.658;11.814;2023-12-20T00:57:04;12.00;;;7.88;;
60999;SDS011;46879;45.658;11.814;2023-12-20T01:02:04;14.70;;;8.73;;
60999;SDS011;46879;45.658;11.814;2023-12-20T01:07:05;13.65;;;9.00;;
60999;SDS011;46879;45.658;11.814;2023-12-20T01:12:06;17.40;;;9.02;;
60999;SDS011;46879;45.658;11.814;2023-12-20T01:17:06;13.10;;;8.30;;
60999;SDS011;46879;45.658;11.814;2023-12-20T01:22:07;11.38;;;8.07;;
60999;SDS011;46879;45.658;11.814;2023-12-20T01:27:07;14.57;;;8.35;;
60999;SDS011;46879;45.658;11.814;2023-12-20T01:32:08;13.55;;;8.30;;
60999;SDS011;46879;45.658;11.814;2023-12-20T01:37:08;14.27;;;8.07;;
60999;SDS011;46879;45.658;11.814;2023-12-20T01:42:09;12.25;;;8.07;;
60999;SDS011;46879;45.658;11.814;2023-12-20T01:47:10;12.13;;;7.72;;
60999;SDS011;46879;45.658;11.814;2023-12-20T01:52:10;12.52;;;8.32;;
60999;SDS011;46879;45.658;11.814;2023-12-20T01:57:11;11.80;;;7.97;;
60999;SDS011;46879;45.658;11.814;2023-12-20T02:02:12;11.32;;;8.02;;
60999;SDS011;46879;45.658;11.814;2023-12-20T02:07:12;13.07;;;8.18;;
60999;SDS011;46879;45.658;11.814;2023-12-20T02:12:13;11.38;;;8.43;;
60999;SDS011;46879;45.658;11.814;2023-12-20T02:17:14;11.88;;;7.32;;
60999;SDS011;46879;45.658;11.814;2023-12-20T02:22:16;13.13;;;8.10;;
60999;SDS011;46879;45.658;11.814;2023-12-20T02:27:17;10.27;;;7.50;;
60999;SDS011;46879;45.658;11.814;2023-12-20T02:32:19;9.63;;;7.20;;
60999;SDS011;46879;45.658;11.814;2023-12-20T02:37:21;14.65;;;7.68;;
60999;SDS011;46879;45.658;11.814;2023-12-20T02:42:21;12.32;;;7.88;;
60999;SDS011;46879;45.658;11.814;2023-12-20T02:47:22;9.05;;;6.82;;
60999;SDS011;46879;45.658;11.814;2023-12-20T02:52:23;9.23;;;7.15;;
60999;SDS011;46879;45.658;11.814;2023-12-20T02:57:24;11.05;;;7.75;;
60999;SDS011;46879;45.658;11.814;2023-12-20T03:02:25;11.70;;;7.05;;
60999;SDS011;46879;45.658;11.814;2023-12-20T03:07:25;13.18;;;7.22;;
60999;SDS011;46879;45.658;11.814;2023-12-20T03:12:26;9.73;;;7.35;;
60999;SDS011;46879;45.658;11.814;2023-12-20T03:17:26;11.30;;;7.13;;
60999;SDS011;46879;45.658;11.814;2023-12-20T03:22:27;8.05;;;6.72;;
60999;SDS011;46879;45.658;11.814;2023-12-20T03:27:27;9.63;;;6.63;;
60999;SDS011;46879;45.658;11.814;2023-12-20T03:32:28;10.25;;;6.97;;
60999;SDS011;46879;45.658;11.814;2023-12-20T03:37:29;8.73;;;6.35;;
60999;SDS011;46879;45.658;11.814;2023-12-20T03:42:29;13.82;;;7.63;;
60999;SDS011;46879;45.658;11.814;2023-12-20T03:47:30;11.25;;;7.00;;
60999;SDS011;46879;45.658;11.814;2023-12-20T03:52:30;12.60;;;7.03;;
60999;SDS011;46879;45.658;11.814;2023-12-20T03:57:31;8.98;;;6.68;;
60999;SDS011;46879;45.658;11.814;2023-12-20T04:02:31;9.13;;;6.65;;
60999;SDS011;46879;45.658;11.814;2023-12-20T04:07:32;7.25;;;5.93;;
60999;SDS011;46879;45.658;11.814;2023-12-20T04:12:33;9.27;;;6.60;;
60999;SDS011;46879;45.658;11.814;2023-12-20T04:17:33;9.18;;;6.95;;
60999;SDS011;46879;45.658;11.814;2023-12-20T04:22:34;8.48;;;6.43;;
60999;SDS011;46879;45.658;11.814;2023-12-20T04:27:35;7.43;;;5.97;;
60999;SDS011;46879;45.658;11.814;2023-12-20T04:32:35;9.70;;;6.65;;
60999;SDS011;46879;45.658;11.814;2023-12-20T04:37:36;9.18;;;6.28;;
60999;SDS011;46879;45.658;11.814;2023-12-20T04:42:36;9.30;;;6.45;;
60999;SDS011;46879;45.658;11.814;2023-12-20T04:47:37;8.85;;;6.38;;
60999;SDS011;46879;45.658;11.814;2023-12-20T04:52:37;7.32;;;5.65;;
60999;SDS011;46879;45.658;11.814;2023-12-20T04:57:38;8.35;;;6.15;;
60999;SDS011;46879;45.658;11.814;2023-12-20T05:02:39;7.57;;;5.70;;
60999;SDS011;46879;45.658;11.814;2023-12-20T05:07:39;9.48;;;6.32;;
60999;SDS011;46879;45.658;11.814;2023-12-20T05:12:40;7.78;;;5.70;;
60999;SDS011;46879;45.658;11.814;2023-12-20T05:17:41;10.13;;;6.38;;
60999;SDS011;46879;45.658;11.814;2023-12-20T05:22:41;8.07;;;5.85;;
60999;SDS011;46879;45.658;11.814;2023-12-20T05:27:42;11.63;;;6.05;;
60999;SDS011;46879;45.658;11.814;2023-12-20T05:32:43;9.88;;;5.85;;
60999;SDS011;46879;45.658;11.814;2023-12-20T05:37:43;7.53;;;5.22;;
60999;SDS011;46879;45.658;11.814;2023-12-20T05:42:44;6.82;;;5.47;;
60999;SDS011;46879;45.658;11.814;2023-12-20T05:47:44;7.75;;;5.43;;
60999;SDS011;46879;45.658;11.814;2023-12-20T05:52:45;8.15;;;5.80;;
60999;SDS011;46879;45.658;11.814;2023-12-20T05:57:45;8.10;;;5.97;;
60999;SDS011;46879;45.658;11.814;2023-12-20T06:02:46;8.88;;;5.57;;
60999;SDS011;46879;45.658;11.814;2023-12-20T06:07:47;7.03;;;5.22;;
60999;SDS011;46879;45.658;11.814;2023-12-20T06:12:49;7.43;;;5.28;;
60999;SDS011;46879;45.658;11.814;2023-12-20T06:17:51;6.70;;;5.25;;
60999;SDS011;46879;45.658;11.814;2023-12-20T06:22:51;11.52;;;5.10;;
60999;SDS011;46879;45.658;11.814;2023-12-20T06:27:52;7.45;;;5.00;;
60999;SDS011;46879;45.658;11.814;2023-12-20T06:32:53;6.43;;;4.75;;
60999;SDS011;46879;45.658;11.814;2023-12-20T06:37:57;7.65;;;5.25;;
60999;SDS011;46879;45.658;11.814;2023-12-20T06:42:58;6.75;;;4.97;;
60999;SDS011;46879;45.658;11.814;2023-12-20T06:47:59;14.35;;;6.75;;
60999;SDS011;46879;45.658;11.814;2023-12-20T06:53:00;13.07;;;7.53;;
60999;SDS011;46879;45.658;11.814;2023-12-20T06:58:06;13.60;;;8.02;;
60999;SDS011;46879;45.658;11.814;2023-12-20T07:03:07;11.95;;;7.30;;
60999;SDS011;46879;45.658;11.814;2023-12-20T07:08:09;13.02;;;8.07;;
60999;SDS011;46879;45.658;11.814;2023-12-20T07:13:10;12.82;;;8.05;;
60999;SDS011;46879;45.658;11.814;2023-12-20T07:18:12;12.13;;;7.57;;
60999;SDS011;46879;45.658;11.814;2023-12-20T07:23:12;12.32;;;7.90;;
60999;SDS011;46879;45.658;11.814;2023-12-20T07:28:13;12.48;;;7.88;;
60999;SDS011;46879;45.658;11.814;2023-12-20T07:33:14;18.25;;;9.48;;
60999;SDS011;46879;45.658;11.814;2023-12-20T07:38:14;12.23;;;7.57;;
60999;SDS011;46879;45.658;11.814;2023-12-20T07:43:15;14.48;;;8.38;;
60999;SDS011;46879;45.658;11.814;2023-12-20T07:48:15;15.82;;;8.65;;
60999;SDS011;46879;45.658;11.814;2023-12-20T07:53:16;15.27;;;7.63;;
60999;SDS011;46879;45.658;11.814;2023-12-20T07:58:17;16.17;;;7.75;;
60999;SDS011;46879;45.658;11.814;2023-12-20T08:03:17;17.20;;;7.13;;
60999;SDS011;46879;45.658;11.814;2023-12-20T08:08:18;9.95;;;7.22;;
60999;SDS011;46879;45.658;11.814;2023-12-20T08:13:18;14.32;;;7.55;;
60999;SDS011;46879;45.658;11.814;2023-12-20T08:18:19;13.63;;;8.07;;
60999;SDS011;46879;45.658;11.814;2023-12-20T08:23:20;12.45;;;7.50;;
60999;SDS011;46879;45.658;11.814;2023-12-20T08:28:21;12.48;;;7.38;;
60999;SDS011;46879;45.658;11.814;2023-12-20T08:33:21;10.27;;;7.50;;
60999;SDS011;46879;45.658;11.814;2023-12-20T08:38:22;10.73;;;7.03;;
60999;SDS011;46879;45.658;11.814;2023-12-20T08:43:22;13.23;;;7.90;;
60999;SDS011;46879;45.658;11.814;2023-12-20T08:48:23;12.82;;;8.40;;
60999;SDS011;46879;45.658;11.814;2023-12-20T08:53:23;12.45;;;7.40;;
60999;SDS011;46879;45.658;11.814;2023-12-20T08:58:25;13.90;;;7.70;;
60999;SDS011;46879;45.658;11.814;2023-12-20T09:03:25;9.43;;;7.20;;
60999;SDS011;46879;45.658;11.814;2023-12-20T09:08:26;10.05;;;7.40;;
60999;SDS011;46879;45.658;11.814;2023-12-20T09:13:26;10.98;;;7.53;;
60999;SDS011;46879;45.658;11.814;2023-12-20T09:18:28;11.18;;;7.47;;
60999;SDS011;46879;45.658;11.814;2023-12-20T09:23:29;12.80;;;7.82;;
60999;SDS011;46879;45.658;11.814;2023-12-20T09:28:29;12.40;;;7.47;;
60999;SDS011;46879;45.658;11.814;2023-12-20T09:33:33;10.40;;;7.35;;
60999;SDS011;46879;45.658;11.814;2023-12-20T09:38:33;13.00;;;7.78;;
60999;SDS011;46879;45.658;11.814;2023-12-20T09:43:37;11.00;;;6.88;;
60999;SDS011;46879;45.658;11.814;2023-12-20T09:48:38;9.93;;;7.65;;
60999;SDS011;46879;45.658;11.814;2023-12-20T09:53:41;10.05;;;7.40;;
60999;SDS011;46879;45.658;11.814;2023-12-20T09:58:43;13.70;;;7.18;;
60999;SDS011;46879;45.658;11.814;2023-12-20T10:03:43;14.85;;;7.00;;
60999;SDS011;46879;45.658;11.814;2023-12-20T10:08:44;12.77;;;7.22;;
60999;SDS011;46879;45.658;11.814;2023-12-20T10:13:45;10.88;;;7.25;;
60999;SDS011;46879;45.658;11.814;2023-12-20T10:18:48;10.98;;;7.60;;
60999;SDS011;46879;45.658;11.814;2023-12-20T10:23:48;13.75;;;7.07;;
60999;SDS011;46879;45.658;11.814;2023-12-20T10:28:53;12.18;;;7.20;;
60999;SDS011;46879;45.658;11.814;2023-12-20T10:33:58;14.48;;;7.93;;
60999;SDS011;46879;45.658;11.814;2023-12-20T10:39:01;9.23;;;7.10;;
60999;SDS011;46879;45.658;11.814;2023-12-20T10:44:03;9.43;;;7.68;;
60999;SDS011;46879;45.658;11.814;2023-12-20T10:49:07;11.60;;;7.80;;
60999;SDS011;46879;45.658;11.814;2023-12-20T10:54:09;11.77;;;7.55;;
60999;SDS011;46879;45.658;11.814;2023-12-20T10:59:11;11.32;;;7.60;;
60999;SDS011;46879;45.658;11.814;2023-12-20T11:04:19;11.90;;;7.60;;
60999;SDS011;46879;45.658;11.814;2023-12-20T11:09:26;11.70;;;8.15;;
60999;SDS011;46879;45.658;11.814;2023-12-20T11:14:47;10.10;;;7.70;;
60999;SDS011;46879;45.658;11.814;2023-12-20T11:25:04;11.00;;;7.75;;
60999;SDS011;46879;45.658;11.814;2023-12-20T11:30:10;12.77;;;8.15;;
60999;SDS011;46879;45.658;11.814;2023-12-20T11:40:14;9.68;;;7.80;;
60999;SDS011;46879;45.658;11.814;2023-12-20T11:45:20;9.65;;;7.25;;
60999;SDS011;46879;45.658;11.814;2023-12-20T11:50:24;13.50;;;8.57;;
60999;SDS011;46879;45.658;11.814;2023-12-20T11:55:25;16.15;;;8.18;;
60999;SDS011;46879;45.658;11.814;2023-12-20T12:00:25;10.73;;;7.68;;
60999;SDS011;46879;45.658;11.814;2023-12-20T12:05:26;8.63;;;7.50;;
60999;SDS011;46879;45.658;11.814;2023-12-20T12:10:27;11.07;;;7.97;;
60999;SDS011;46879;45.658;11.814;2023-12-20T12:15:29;10.50;;;7.30;;
60999;SDS011;46879;45.658;11.814;2023-12-20T12:20:29;11.57;;;7.88;;
60999;SDS011;46879;45.658;11.814;2023-12-20T12:25:31;14.55;;;8.00;;
60999;SDS011;46879;45.658;11.814;2023-12-20T12:30:34;13.07;;;7.72;;
60999;SDS011;46879;45.658;11.814;2023-12-20T12:35:35;11.27;;;7.43;;
60999;SDS011;46879;45.658;11.814;2023-12-20T12:40:36;10.50;;;7.80;;
60999;SDS011;46879;45.658;11.814;2023-12-20T12:45:36;10.35;;;7.93;;
60999;SDS011;46879;45.658;11.814;2023-12-20T12:50:37;12.15;;;8.15;;
60999;SDS011;46879;45.658;11.814;2023-12-20T12:55:37;10.45;;;7.50;;
60999;SDS011;46879;45.658;11.814;2023-12-20T13:00:38;16.27;;;7.65;;
60999;SDS011;46879;45.658;11.814;2023-12-20T13:05:39;11.13;;;7.75;;
60999;SDS011;46879;45.658;11.814;2023-12-20T13:10:39;15.07;;;8.10;;
60999;SDS011;46879;45.658;11.814;2023-12-20T13:15:40;16.67;;;8.02;;
60999;SDS011;46879;45.658;11.814;2023-12-20T13:20:40;11.90;;;7.93;;
60999;SDS011;46879;45.658;11.814;2023-12-20T13:25:41;10.13;;;7.65;;
60999;SDS011;46879;45.658;11.814;2023-12-20T13:30:42;11.98;;;7.70;;
60999;SDS011;46879;45.658;11.814;2023-12-20T13:35:42;15.07;;;7.90;;
60999;SDS011;46879;45.658;11.814;2023-12-20T13:40:43;9.63;;;6.90;;
60999;SDS011;46879;45.658;11.814;2023-12-20T13:45:44;10.85;;;6.90;;
60999;SDS011;46879;45.658;11.814;2023-12-20T13:50:45;9.57;;;6.95;;
60999;SDS011;46879;45.658;11.814;2023-12-20T13:55:45;11.85;;;6.60;;
60999;SDS011;46879;45.658;11.814;2023-12-20T14:00:46;11.50;;;7.10;;
60999;SDS011;46879;45.658;11.814;2023-12-20T14:05:46;9.73;;;5.97;;
60999;SDS011;46879;45.658;11.814;2023-12-20T14:10:47;11.65;;;7.63;;
60999;SDS011;46879;45.658;11.814;2023-12-20T14:15:48;13.15;;;6.93;;
60999;SDS011;46879;45.658;11.814;2023-12-20T14:20:49;10.20;;;6.45;;
60999;SDS011;46879;45.658;11.814;2023-12-20T14:25:50;16.73;;;7.32;;
60999;SDS011;46879;45.658;11.814;2023-12-20T14:30:51;10.95;;;6.57;;
60999;SDS011;46879;45.658;11.814;2023-12-20T14:35:52;8.80;;;6.97;;
60999;SDS011;46879;45.658;11.814;2023-12-20T14:40:52;9.25;;;7.03;;
60999;SDS011;46879;45.658;11.814;2023-12-20T14:45:53;10.93;;;6.53;;
60999;SDS011;46879;45.658;11.814;2023-12-20T14:50:54;12.35;;;7.05;;
60999;SDS011;46879;45.658;11.814;2023-12-20T14:55:54;8.95;;;6.82;;
60999;SDS011;46879;45.658;11.814;2023-12-20T15:00:55;13.77;;;6.35;;
60999;SDS011;46879;45.658;11.814;2023-12-20T15:05:56;10.48;;;6.75;;
60999;SDS011;46879;45.658;11.814;2023-12-20T15:10:58;12.05;;;6.95;;
60999;SDS011;46879;45.658;11.814;2023-12-20T15:15:59;7.88;;;6.57;;
60999;SDS011;46879;45.658;11.814;2023-12-20T15:21:00;11.48;;;7.18;;
60999;SDS011;46879;45.658;11.814;2023-12-20T15:26:00;9.52;;;6.82;;
60999;SDS011;46879;45.658;11.814;2023-12-20T15:31:01;10.63;;;6.53;;
60999;SDS011;46879;45.658;11.814;2023-12-20T15:36:01;8.95;;;6.47;;
60999;SDS011;46879;45.658;11.814;2023-12-20T15:41:02;9.35;;;6.50;;
60999;SDS011;46879;45.658;11.814;2023-12-20T15:46:03;11.95;;;6.93;;
60999;SDS011;46879;45.658;11.814;2023-12-20T15:51:04;10.05;;;6.70;;
60999;SDS011;46879;45.658;11.814;2023-12-20T15:56:06;9.75;;;7.00;;
60999;SDS011;46879;45.658;11.814;2023-12-20T16:01:07;8.35;;;6.28;;
60999;SDS011;46879;45.658;11.814;2023-12-20T16:06:09;9.52;;;6.53;;
60999;SDS011;46879;45.658;11.814;2023-12-20T16:11:10;10.30;;;7.15;;
60999;SDS011;46879;45.658;11.814;2023-12-20T16:16:11;9.82;;;7.30;;
60999;SDS011;46879;45.658;11.814;2023-12-20T16:21:12;11.57;;;8.05;;
60999;SDS011;46879;45.658;11.814;2023-12-20T16:26:13;19.67;;;9.45;;
60999;SDS011;46879;45.658;11.814;2023-12-20T16:31:13;14.88;;;9.18;;
60999;SDS011;46879;45.658;11.814;2023-12-20T16:36:14;14.48;;;10.30;;
60999;SDS011;46879;45.658;11.814;2023-12-20T16:41:15;20.20;;;11.30;;
60999;SDS011;46879;45.658;11.814;2023-12-20T16:46:15;20.05;;;11.07;;
60999;SDS011;46879;45.658;11.814;2023-12-20T16:51:16;16.58;;;10.48;;
60999;SDS011;46879;45.658;11.814;2023-12-20T16:56:16;16.48;;;9.95;;
60999;SDS011;46879;45.658;11.814;2023-12-20T17:01:17;17.17;;;10.50;;
60999;SDS011;46879;45.658;11.814;2023-12-20T17:06:18;16.50;;;9.85;;
60999;SDS011;46879;45.658;11.814;2023-12-20T17:11:19;16.95;;;10.18;;
60999;SDS011;46879;45.658;11.814;2023-12-20T17:16:21;13.77;;;9.95;;
60999;SDS011;46879;45.658;11.814;2023-12-20T17:21:21;16.05;;;10.20;;
60999;SDS011;46879;45.658;11.814;2023-12-20T17:26:22;15.43;;;10.43;;
60999;SDS011;46879;45.658;11.814;2023-12-20T17:31:23;14.48;;;9.77;;
60999;SDS011;46879;45.658;11.814;2023-12-20T17:36:23;16.83;;;10.38;;
60999;SDS011;46879;45.658;11.814;2023-12-20T17:41:24;16.52;;;10.25;;
60999;SDS011;46879;45.658;11.814;2023-12-20T17:46:24;13.85;;;9.95;;
60999;SDS011;46879;45.658;11.814;2023-12-20T17:51:25;19.17;;;10.73;;
60999;SDS011;46879;45.658;11.814;2023-12-20T17:56:27;18.42;;;9.65;;
60999;SDS011;46879;45.658;11.814;2023-12-20T18:01:29;15.02;;;9.75;;
60999;SDS011;46879;45.658;11.814;2023-12-20T18:06:30;15.40;;;9.57;;
60999;SDS011;46879;45.658;11.814;2023-12-20T18:11:30;17.30;;;10.35;;
60999;SDS011;46879;45.658;11.814;2023-12-20T18:16:31;13.32;;;8.70;;
60999;SDS011;46879;45.658;11.814;2023-12-20T18:21:31;16.13;;;9.40;;
60999;SDS011;46879;45.658;11.814;2023-12-20T18:26:32;14.38;;;9.43;;
60999;SDS011;46879;45.658;11.814;2023-12-20T18:31:35;14.80;;;9.55;;
60999;SDS011;46879;45.658;11.814;2023-12-20T18:36:36;19.75;;;10.50;;
60999;SDS011;46879;45.658;11.814;2023-12-20T18:41:37;13.93;;;8.98;;
60999;SDS011;46879;45.658;11.814;2023-12-20T18:46:40;16.20;;;9.25;;
60999;SDS011;46879;45.658;11.814;2023-12-20T18:51:41;18.27;;;10.25;;
60999;SDS011;46879;45.658;11.814;2023-12-20T18:56:41;16.92;;;9.85;;
60999;SDS011;46879;45.658;11.814;2023-12-20T19:01:43;16.00;;;10.30;;
60999;SDS011;46879;45.658;11.814;2023-12-20T19:06:43;16.17;;;9.93;;
60999;SDS011;46879;45.658;11.814;2023-12-20T19:11:44;16.00;;;9.82;;
60999;SDS011;46879;45.658;11.814;2023-12-20T19:16:44;15.90;;;9.80;;
60999;SDS011;46879;45.658;11.814;2023-12-20T19:21:45;18.60;;;10.55;;
60999;SDS011;46879;45.658;11.814;2023-12-20T19:26:46;18.35;;;11.00;;
60999;SDS011;46879;45.658;11.814;2023-12-20T19:31:46;14.32;;;9.93;;
60999;SDS011;46879;45.658;11.814;2023-12-20T19:36:47;21.10;;;10.15;;
60999;SDS011;46879;45.658;11.814;2023-12-20T19:41:48;17.10;;;10.18;;
60999;SDS011;46879;45.658;11.814;2023-12-20T19:46:49;19.70;;;10.45;;
60999;SDS011;46879;45.658;11.814;2023-12-20T19:51:49;15.15;;;9.70;;
60999;SDS011;46879;45.658;11.814;2023-12-20T19:56:50;16.00;;;10.05;;
60999;SDS011;46879;45.658;11.814;2023-12-20T20:01:50;16.95;;;9.43;;
60999;SDS011;46879;45.658;11.814;2023-12-20T20:06:51;16.63;;;9.23;;
60999;SDS011;46879;45.658;11.814;2023-12-20T20:11:52;14.85;;;9.65;;
60999;SDS011;46879;45.658;11.814;2023-12-20T20:16:52;16.35;;;8.23;;
60999;SDS011;46879;45.658;11.814;2023-12-20T20:21:53;25.20;;;9.82;;
60999;SDS011;46879;45.658;11.814;2023-12-20T20:26:55;13.48;;;9.23;;
60999;SDS011;46879;45.658;11.814;2023-12-20T20:31:55;13.95;;;8.93;;
60999;SDS011;46879;45.658;11.814;2023-12-20T20:36:56;16.20;;;9.85;;
60999;SDS011;46879;45.658;11.814;2023-12-20T20:41:57;19.40;;;9.13;;
60999;SDS011;46879;45.658;11.814;2023-12-20T20:46:57;12.68;;;8.07;;
60999;SDS011;46879;45.658;11.814;2023-12-20T20:51:58;14.70;;;8.90;;
60999;SDS011;46879;45.658;11.814;2023-12-20T20:56:58;11.98;;;8.43;;
60999;SDS011;46879;45.658;11.814;2023-12-20T21:02:00;13.55;;;8.75;;
60999;SDS011;46879;45.658;11.814;2023-12-20T21:07:02;14.57;;;8.18;;
60999;SDS011;46879;45.658;11.814;2023-12-20T21:12:03;14.55;;;8.60;;
60999;SDS011;46879;45.658;11.814;2023-12-20T21:17:04;15.13;;;8.20;;
60999;SDS011;46879;45.658;11.814;2023-12-20T21:22:05;11.32;;;7.90;;
60999;SDS011;46879;45.658;11.814;2023-12-20T21:27:05;15.93;;;8.75;;
60999;SDS011;46879;45.658;11.814;2023-12-20T21:32:07;16.75;;;8.70;;
60999;SDS011;46879;45.658;11.814;2023-12-20T21:37:08;13.90;;;7.68;;
60999;SDS011;46879;45.658;11.814;2023-12-20T21:42:09;11.68;;;7.38;;
60999;SDS011;46879;45.658;11.814;2023-12-20T21:47:10;11.60;;;7.05;;
60999;SDS011;46879;45.658;11.814;2023-12-20T21:52:10;13.55;;;7.18;;
60999;SDS011;46879;45.658;11.814;2023-12-20T21:57:12;11.77;;;7.25;;
60999;SDS011;46879;45.658;11.814;2023-12-20T22:02:16;10.43;;;7.35;;
60999;SDS011;46879;45.658;11.814;2023-12-20T22:07:23;9.60;;;6.82;;
60999;SDS011;46879;45.658;11.814;2023-12-20T22:12:24;12.13;;;7.10;;
60999;SDS011;46879;45.658;11.814;2023-12-20T22:17:24;10.35;;;7.13;;
60999;SDS011;46879;45.658;11.814;2023-12-20T22:22:25;11.93;;;7.68;;
60999;SDS011;46879;45.658;11.814;2023-12-20T22:27:26;9.65;;;7.32;;
60999;SDS011;46879;45.658;11.814;2023-12-20T22:32:27;13.40;;;7.53;;
60999;SDS011;46879;45.658;11.814;2023-12-20T22:37:28;8.98;;;6.40;;
60999;SDS011;46879;45.658;11.814;2023-12-20T22:42:28;14.32;;;7.15;;
60999;SDS011;46879;45.658;11.814;2023-12-20T22:47:29;12.88;;;7.18;;
60999;SDS011;46879;45.658;11.814;2023-12-20T22:52:29;12.75;;;6.55;;
60999;SDS011;46879;45.658;11.814;2023-12-20T22:57:30;9.38;;;6.13;;
60999;SDS011;46879;45.658;11.814;2023-12-20T23:02:31;10.25;;;6.72;;
60999;SDS011;46879;45.658;11.814;2023-12-20T23:07:31;9.80;;;6.18;;
60999;SDS011;46879;45.658;11.814;2023-12-20T23:12:32;11.35;;;6.57;;
60999;SDS011;46879;45.658;11.814;2023-12-20T23:17:33;12.18;;;6.05;;
60999;SDS011;46879;45.658;11.814;2023-12-20T23:22:33;9.93;;;5.93;;
60999;SDS011;46879;45.658;11.814;2023-12-20T23:27:34;11.57;;;6.55;;
60999;SDS011;46879;45.658;11.814;2023-12-20T23:32:34;10.10;;;5.57;;
60999;SDS011;46879;45.658;11.814;2023-12-20T23:37:35;10.15;;;6.40;;
60999;SDS011;46879;45.658;11.814;2023-12-20T23:42:36;8.82;;;6.10;;
60999;SDS011;46879;45.658;11.814;2023-12-20T23:47:36;8.30;;;6.05;;
60999;SDS011;46879;45.658;11.814;2023-12-20T23:52:37;11.30;;;6.47;;
60999;SDS011;46879;45.658;11.814;2023-12-20T23:57:38;10.93;;;6.13;;
